DABT

Batna Airport

Batna, Algeria
METAR DABT 230700Z 10003KT 9999 SCT020 M01/M03 Q1003
Observed Flight Rules
Feb-23 @ 07:00 UTC (an hour ago) Visual Flight Rules
Wind Visibility Clouds
100° at 3 knots 10,000+ meters
  • Scattered at 2,000' AGL
Temperatures Readings
Current -1°C / 30°F
Dewpoint -3°C / 27°F
Humidity 86%
Altimeter 29.62" Hg
Pressure 1003 hPa
Elevation 823
METAR DABT 230700Z 10003KT 9999 SCT020 M01/M03 Q1003
Observed Flight Rules
Feb-23 @ 07:00 UTC
(an hour ago)
VFR
Wind Visibility
100° at 3 knots 10,000+ meters
Clouds
  • Scattered at 2,000' AGL
Temperature Dewpoint
-1°C / 30°F -3°C / 27°F
Humidity Altimeter Pressure
86% 29.62" Hg 1003 hPa